Time;durP1;ratioP1;P1;durP2;ratioP2;P2;SDS_P1;SDS_P2;PMS_P1;PMS_P2;Temp;Humidity;BMP_temperature;BMP_pressure;BME280_temperature;BME280_humidity;BME280_pressure;Samples;Min_cycle;Max_cycle;Signal;HPM_P1;HPM_P2
2023/06/06 00:02:06;;;;;;;3.53;2.60;;;20.30;55.10;;;;;;5055703;28;20053;-32
2023/06/06 00:04:35;;;;;;;2.80;2.28;;;20.40;73.10;;;;;;5055290;28;20045;-31
2023/06/06 00:07:04;;;;;;;3.38;2.30;;;20.20;73.20;;;;;;5055103;28;20045;-32
2023/06/06 00:09:31;;;;;;;3.05;2.75;;;19.20;58.70;;;;;;5055094;28;20564;-31
2023/06/06 00:11:58;;;;;;;2.67;2.30;;;;;;;;;;5055297;28;20060;-33
2023/06/06 00:14:31;;;;;;;2.88;2.40;;;;;;;;;;5057801;28;20052;-31
2023/06/06 00:16:58;;;;;;;3.03;2.20;;;20.00;72.90;;;;;;5074721;28;20049;-31
2023/06/06 00:19:24;;;;;;;2.95;2.30;;;20.60;72.80;;;;;;5074920;28;20076;-31
2023/06/06 00:21:51;;;;;;;3.17;2.40;;;21.40;73.20;;;;;;5074564;28;20052;-31
2023/06/06 00:24:20;;;;;;;4.30;2.30;;;20.20;55.00;;;;;;5074920;28;20057;-32
2023/06/06 00:26:46;;;;;;;3.03;2.25;;;20.60;69.80;;;;;;5074995;28;20067;-32
2023/06/06 00:29:13;;;;;;;3.33;2.22;;;20.50;72.80;;;;;;5074938;28;20128;-31
2023/06/06 00:31:40;;;;;;;2.92;2.30;;;;;;;;;;5064441;28;20049;-35
2023/06/06 00:34:07;;;;;;;3.00;2.35;;;19.70;72.60;;;;;;5054377;28;20055;-31
2023/06/06 00:36:34;;;;;;;2.65;2.20;;;20.10;72.60;;;;;;5060272;28;20131;-31
2023/06/06 00:39:01;;;;;;;2.60;2.17;;;;;;;;;;5074788;28;20056;-31
2023/06/06 00:41:29;;;;;;;2.85;2.10;;;19.50;56.10;;;;;;5074747;28;20131;-31
2023/06/06 00:43:56;;;;;;;3.22;2.50;;;20.20;64.00;;;;;;5074410;28;20127;-30
2023/06/06 00:46:23;;;;;;;3.10;2.25;;;;;;;;;;5073445;28;20497;-33
2023/06/06 00:48:51;;;;;;;2.78;2.17;;;20.50;73.20;;;;;;5074418;28;20390;-31
2023/06/06 00:51:18;;;;;;;2.78;2.20;;;20.20;72.60;;;;;;5074276;28;20072;-31
2023/06/06 00:53:45;;;;;;;3.40;2.28;;;19.20;72.10;;;;;;5074491;28;20079;-31
2023/06/06 00:56:13;;;;;;;3.47;2.50;;;19.70;60.20;;;;;;5074286;28;20048;-31
2023/06/06 00:58:41;;;;;;;2.63;2.08;;;20.50;70.80;;;;;;5074243;28;20090;-31
2023/06/06 01:01:09;;;;;;;2.75;2.13;;;;;;;;;;5073686;28;20060;-32
2023/06/06 01:03:36;;;;;;;2.60;1.90;;;20.80;60.90;;;;;;5073753;28;20052;-31
2023/06/06 01:06:03;;;;;;;3.25;2.38;;;;;;;;;;5073996;28;20478;-31
2023/06/06 01:08:30;;;;;;;2.88;2.17;;;20.40;72.70;;;;;;5073946;28;20055;-31
2023/06/06 01:11:06;;;;;;;2.72;2.00;;;20.30;73.60;;;;;;5073378;28;20060;-31
2023/06/06 01:13:36;;;;;;;3.58;2.05;;;19.10;72.00;;;;;;5073901;28;20485;-31
2023/06/06 01:16:06;;;;;;;2.20;2.00;;;20.40;73.60;;;;;;5073865;28;20441;-31
2023/06/06 01:18:33;;;;;;;4.53;2.53;;;20.10;72.80;;;;;;5073615;28;20044;-32
2023/06/06 01:21:00;;;;;;;2.80;2.17;;;20.40;60.70;;;;;;5074192;28;20067;-32
2023/06/06 01:23:30;;;;;;;2.67;2.20;;;20.20;55.10;;;;;;5073476;28;20135;-31
2023/06/06 01:25:56;;;;;;;3.15;2.17;;;19.80;72.40;;;;;;5073833;28;20135;-31
2023/06/06 01:28:25;;;;;;;2.70;2.20;;;20.30;72.80;;;;;;5073677;28;20049;-31
2023/06/06 01:30:51;;;;;;;2.80;2.08;;;20.10;72.80;;;;;;5073714;28;20060;-31
2023/06/06 01:33:24;;;;;;;2.65;2.00;;;20.10;55.00;;;;;;5053497;28;20136;-35
2023/06/06 01:35:59;;;;;;;2.90;2.15;;;19.80;55.90;;;;;;5054503;28;20132;-30
2023/06/06 01:38:29;;;;;;;3.10;2.13;;;20.00;73.00;;;;;;5073739;28;20058;-31
2023/06/06 01:40:57;;;;;;;2.13;1.92;;;21.10;73.10;;;;;;5073554;28;20052;-31
2023/06/06 01:43:25;;;;;;;2.92;2.00;;;20.00;73.40;;;;;;5073177;28;20091;-31
2023/06/06 01:45:51;;;;;;;3.67;2.50;;;20.20;73.50;;;;;;5072852;28;20139;-31
2023/06/06 01:48:18;;;;;;;3.45;2.42;;;20.60;72.90;;;;;;5073282;28;20056;-31
2023/06/06 01:50:45;;;;;;;2.88;2.13;;;20.30;59.00;;;;;;5073302;28;20044;-33
2023/06/06 01:53:11;;;;;;;2.90;2.20;;;19.80;72.80;;;;;;5073033;28;20585;-31
2023/06/06 01:55:41;;;;;;;2.35;2.15;;;20.40;71.10;;;;;;5073171;28;20227;-31
2023/06/06 01:58:09;;;;;;;2.42;1.95;;;;;;;;;;5072823;28;20098;-31
2023/06/06 02:00:36;;;;;;;3.50;2.50;;;20.50;66.00;;;;;;5072690;28;20060;-32
2023/06/06 02:03:03;;;;;;;3.90;2.15;;;20.20;72.70;;;;;;5072857;28;20131;-31
2023/06/06 02:05:29;;;;;;;2.50;2.10;;;19.90;59.90;;;;;;5073047;28;20428;-32
2023/06/06 02:07:56;;;;;;;4.00;2.40;;;20.20;72.70;;;;;;5072640;28;20044;-31
2023/06/06 02:10:23;;;;;;;2.25;2.00;;;20.10;72.60;;;;;;5072849;28;20481;-32
2023/06/06 02:12:51;;;;;;;2.47;1.80;;;20.30;59.90;;;;;;5072225;28;20493;-33
2023/06/06 02:15:18;;;;;;;3.15;2.13;;;20.00;57.30;;;;;;5072333;28;20123;-33
2023/06/06 02:17:44;;;;;;;2.10;1.90;;;20.30;60.30;;;;;;5072793;28;20118;-32
2023/06/06 02:20:11;;;;;;;3.20;2.28;;;20.00;55.00;;;;;;5072744;28;20131;-31
2023/06/06 02:22:38;;;;;;;2.60;2.28;;;20.20;71.70;;;;;;5072206;28;20055;-32
2023/06/06 02:25:06;;;;;;;3.67;1.80;;;20.10;55.10;;;;;;5072494;28;20506;-32
2023/06/06 02:27:34;;;;;;;2.50;2.08;;;20.60;73.90;;;;;;5072602;28;20052;-32
2023/06/06 02:30:03;;;;;;;2.20;1.98;;;19.50;58.10;;;;;;5064169;28;20076;-35
2023/06/06 02:32:30;;;;;;;2.22;2.00;;;20.00;73.10;;;;;;5052428;28;20075;-31
2023/06/06 02:34:59;;;;;;;3.13;2.30;;;20.20;72.70;;;;;;5052246;28;20133;-32
2023/06/06 02:37:26;;;;;;;2.22;1.90;;;19.90;72.60;;;;;;5065196;28;20456;-32
2023/06/06 02:39:53;;;;;;;2.42;1.90;;;19.60;73.20;;;;;;5072480;28;20128;-31
2023/06/06 02:42:20;;;;;;;2.50;1.95;;;20.30;73.20;;;;;;5072070;28;20513;-32
2023/06/06 02:44:47;;;;;;;2.30;1.98;;;19.00;57.70;;;;;;5071592;28;20135;-35
2023/06/06 02:47:15;;;;;;;2.67;2.00;;;20.10;73.60;;;;;;5072019;28;20135;-32
2023/06/06 02:49:41;;;;;;;2.85;1.88;;;20.30;73.70;;;;;;5072125;28;20147;-31
2023/06/06 02:52:08;;;;;;;2.97;2.20;;;19.90;72.60;;;;;;5071903;28;20128;-32
2023/06/06 02:54:35;;;;;;;2.88;2.25;;;20.20;57.90;;;;;;5072064;28;20067;-35
2023/06/06 02:57:01;;;;;;;2.75;2.08;;;20.10;73.10;;;;;;5071799;28;20494;-33
2023/06/06 02:59:28;;;;;;;3.55;2.28;;;20.10;72.80;;;;;;5071550;28;20123;-32
2023/06/06 03:01:55;;;;;;;2.20;1.90;;;;;;;;;;5071952;28;20136;-35
2023/06/06 03:04:24;;;;;;;2.42;1.90;;;19.30;73.20;;;;;;5071894;28;20049;-33
2023/06/06 03:06:50;;;;;;;2.63;2.10;;;19.80;61.80;;;;;;5071855;28;20132;-32
2023/06/06 03:09:19;;;;;;;3.33;2.17;;;19.40;54.70;;;;;;5071493;28;20055;-33
2023/06/06 03:11:45;;;;;;;2.95;2.22;;;20.40;61.90;;;;;;5071988;28;20093;-32
2023/06/06 03:14:12;;;;;;;3.28;2.10;;;19.50;58.60;;;;;;5071170;28;20052;-31
2023/06/06 03:16:39;;;;;;;3.45;2.08;;;;;;;;;;5071651;28;20051;-31
2023/06/06 03:19:07;;;;;;;2.58;2.20;;;20.20;73.70;;;;;;5071758;28;20573;-32
2023/06/06 03:21:36;;;;;;;2.85;2.00;;;19.90;55.20;;;;;;5071768;28;20489;-33
2023/06/06 03:24:03;;;;;;;3.30;2.10;;;20.40;73.40;;;;;;5071506;28;20080;-32
2023/06/06 03:26:31;;;;;;;2.58;1.90;;;;;;;;;;5071754;28;20131;-32
2023/06/06 03:28:58;;;;;;;2.20;1.80;;;19.60;63.00;;;;;;5056726;28;20052;-32
2023/06/06 03:31:25;;;;;;;2.67;2.15;;;19.70;73.50;;;;;;5051628;28;20053;-32
2023/06/06 03:33:52;;;;;;;3.00;2.22;;;;;;;;;;5050657;28;20053;-34
2023/06/06 03:36:19;;;;;;;2.65;1.90;;;19.70;72.50;;;;;;5055248;28;20123;-31
2023/06/06 03:38:47;;;;;;;2.20;1.77;;;19.90;55.00;;;;;;5071814;28;20094;-35
2023/06/06 03:41:14;;;;;;;2.55;1.90;;;;;;;;;;5071499;28;20164;-35
2023/06/06 03:43:41;;;;;;;3.00;2.05;;;19.90;55.00;;;;;;5070512;28;20049;-32
2023/06/06 03:46:08;;;;;;;3.15;1.80;;;;;;;;;;5071386;28;20045;-35
2023/06/06 03:48:35;;;;;;;2.92;2.10;;;19.90;73.60;;;;;;5071669;28;20048;-31
2023/06/06 03:51:03;;;;;;;3.05;1.92;;;;;;;;;;5071585;28;20144;-36
2023/06/06 03:53:29;;;;;;;2.58;1.80;;;20.90;73.30;;;;;;5071398;28;20147;-32
2023/06/06 03:55:58;;;;;;;3.00;2.08;;;20.30;71.50;;;;;;5071382;28;20561;-31
2023/06/06 03:58:25;;;;;;;2.33;2.08;;;19.50;73.00;;;;;;5070548;28;20049;-34
2023/06/06 04:00:52;;;;;;;2.60;2.00;;;19.60;72.70;;;;;;5071343;28;20048;-31
2023/06/06 04:03:19;;;;;;;2.42;1.90;;;20.40;72.70;;;;;;5070980;28;20074;-31
2023/06/06 04:05:47;;;;;;;2.47;2.00;;;19.90;63.30;;;;;;5071018;28;20131;-32
2023/06/06 04:08:13;;;;;;;2.58;1.95;;;20.90;73.30;;;;;;5071155;28;20052;-32
2023/06/06 04:10:40;;;;;;;2.20;2.00;;;19.80;73.70;;;;;;5070723;28;20136;-31
2023/06/06 04:13:08;;;;;;;2.80;2.00;;;19.80;55.00;;;;;;5070997;28;20127;-35
2023/06/06 04:15:35;;;;;;;2.17;1.98;;;;;;;;;;5071041;28;20140;-36
2023/06/06 04:18:02;;;;;;;2.90;1.95;;;20.10;73.80;;;;;;5071355;28;20052;-31
2023/06/06 04:20:31;;;;;;;2.35;2.00;;;20.00;73.40;;;;;;5071251;28;20048;-32
2023/06/06 04:23:00;;;;;;;3.25;1.90;;;19.70;69.90;;;;;;5070895;28;20048;-31
2023/06/06 04:25:26;;;;;;;2.88;2.00;;;19.40;72.60;;;;;;5069946;28;20095;-32
2023/06/06 04:27:53;;;;;;;2.28;1.85;;;19.80;72.90;;;;;;5051069;28;20123;-32
2023/06/06 04:30:23;;;;;;;2.55;1.98;;;19.60;58.80;;;;;;5051192;28;20052;-35
2023/06/06 04:32:50;;;;;;;2.80;1.95;;;;;;;;;;5050766;28;20044;-36
2023/06/06 04:35:18;;;;;;;3.45;2.10;;;20.00;73.40;;;;;;5051098;28;20128;-31
2023/06/06 04:37:47;;;;;;;2.97;1.95;;;19.20;72.80;;;;;;5066728;28;20048;-32
2023/06/06 04:40:15;;;;;;;3.28;2.00;;;20.00;56.20;;;;;;5070195;28;20036;-34
2023/06/06 04:42:42;;;;;;;2.30;1.90;;;;;;;;;;5070624;28;20113;-35
2023/06/06 04:45:10;;;;;;;2.53;1.90;;;;;;;;;;5071090;28;20565;-33
2023/06/06 04:47:40;;;;;;;2.58;1.88;;;19.70;55.00;;;;;;5074523;28;20052;-32
2023/06/06 04:50:08;;;;;;;3.85;2.13;;;20.00;67.30;;;;;;5074572;28;20048;-33
2023/06/06 04:52:35;;;;;;;4.10;2.05;;;;;;;;;;5074010;28;20510;-37
2023/06/06 04:55:03;;;;;;;2.30;1.88;;;;;;;;;;5073627;28;20051;-36
2023/06/06 04:57:32;;;;;;;2.83;1.80;;;;;;;;;;5074462;28;20052;-32
2023/06/06 05:00:01;;;;;;;3.30;2.03;;;20.10;73.10;;;;;;5074286;28;20497;-32
2023/06/06 05:02:28;;;;;;;2.45;1.90;;;20.10;73.50;;;;;;5073877;28;20428;-33
2023/06/06 05:04:57;;;;;;;2.75;1.90;;;19.70;55.00;;;;;;5074368;28;20052;-35
2023/06/06 05:07:24;;;;;;;2.70;2.00;;;20.60;73.30;;;;;;5074166;28;20151;-31
2023/06/06 05:09:50;;;;;;;2.75;1.90;;;19.90;73.00;;;;;;5073839;28;20138;-31
2023/06/06 05:12:17;;;;;;;3.42;2.03;;;20.10;60.90;;;;;;5074309;28;20071;-33
2023/06/06 05:14:44;;;;;;;2.85;2.03;;;18.80;72.50;;;;;;5074048;28;20131;-32
2023/06/06 05:17:11;;;;;;;2.42;1.90;;;;;;;;;;5074149;28;20159;-36
2023/06/06 05:19:38;;;;;;;2.30;1.90;;;19.80;73.00;;;;;;5074034;28;20040;-32
2023/06/06 05:22:06;;;;;;;2.80;1.80;;;19.50;73.90;;;;;;5072001;28;20135;-33
2023/06/06 05:24:33;;;;;;;2.58;1.85;;;;;;;;;;5069686;28;20049;-34
2023/06/06 05:27:00;;;;;;;2.78;1.70;;;20.00;74.00;;;;;;5070276;28;20055;-31
2023/06/06 05:29:27;;;;;;;2.97;2.13;;;20.10;73.70;;;;;;5073849;28;20076;-32
2023/06/06 05:31:54;;;;;;;2.67;1.88;;;;;;;;;;5073669;28;20052;-35
2023/06/06 05:34:20;;;;;;;2.58;1.85;;;20.20;71.40;;;;;;5073409;28;20091;-32
2023/06/06 05:36:47;;;;;;;3.28;1.90;;;19.90;73.10;;;;;;5072978;28;20561;-33
2023/06/06 05:39:15;;;;;;;3.25;2.00;;;18.90;59.70;;;;;;5071145;28;20446;-34
2023/06/06 05:41:42;;;;;;;3.13;2.00;;;;;;;;;;5073552;28;20045;-34
2023/06/06 05:44:09;;;;;;;2.80;1.90;;;19.30;72.90;;;;;;5073419;28;20056;-32
2023/06/06 05:46:36;;;;;;;2.55;1.80;;;;;;;;;;5073219;28;20128;-35
2023/06/06 05:49:03;;;;;;;3.83;2.10;;;;;;;;;;5072739;28;20066;-33
2023/06/06 05:51:30;;;;;;;3.67;2.05;;;19.70;73.90;;;;;;5059652;28;20055;-33
2023/06/06 05:53:57;;;;;;;3.05;2.00;;;19.40;73.60;;;;;;5056936;28;20044;-32
2023/06/06 05:56:26;;;;;;;3.20;2.00;;;19.80;74.00;;;;;;5052011;28;20397;-31
2023/06/06 05:58:53;;;;;;;2.70;2.10;;;20.00;69.90;;;;;;5058345;28;20045;-32
2023/06/06 06:01:22;;;;;;;2.95;2.17;;;;;;;;;;5060215;28;20056;-31
2023/06/06 06:03:49;;;;;;;3.10;2.10;;;19.30;73.20;;;;;;5060305;28;20107;-31
2023/06/06 06:06:16;;;;;;;2.42;1.90;;;19.90;74.20;;;;;;5066931;28;20127;-31
2023/06/06 06:08:44;;;;;;;3.72;1.98;;;;;;;;;;5072898;28;20070;-32
2023/06/06 06:11:12;;;;;;;3.42;2.05;;;;;;;;;;5073005;28;20084;-35
2023/06/06 06:13:40;;;;;;;3.47;2.10;;;19.30;55.50;;;;;;5072596;28;20060;-35
2023/06/06 06:16:07;;;;;;;4.10;2.03;;;19.40;61.10;;;;;;5072817;28;20060;-33
2023/06/06 06:18:34;;;;;;;3.15;2.00;;;19.40;73.00;;;;;;5073144;28;20135;-32
2023/06/06 06:21:01;;;;;;;3.95;2.17;;;19.60;73.90;;;;;;5069079;28;20471;-31
2023/06/06 06:23:27;;;;;;;3.72;1.98;;;19.40;66.80;;;;;;5054558;28;20059;-32
2023/06/06 06:25:54;;;;;;;3.40;2.20;;;20.80;73.60;;;;;;5052905;28;20044;-31
2023/06/06 06:28:21;;;;;;;3.25;2.17;;;20.10;73.30;;;;;;5052533;28;20055;-31
2023/06/06 06:30:49;;;;;;;2.80;1.90;;;19.60;55.00;;;;;;5052636;28;20501;-33
2023/06/06 06:33:16;;;;;;;2.83;1.80;;;19.40;72.60;;;;;;5052528;28;20049;-32
2023/06/06 06:35:43;;;;;;;4.15;2.45;;;19.50;62.20;;;;;;5052777;28;20045;-32
2023/06/06 06:38:10;;;;;;;3.30;2.10;;;19.40;63.70;;;;;;5058708;28;20044;-31
2023/06/06 06:40:37;;;;;;;2.88;2.00;;;;;;;;;;5063794;28;20047;-32
2023/06/06 06:43:04;;;;;;;2.83;2.20;;;19.60;55.60;;;;;;5072354;28;20478;-33
2023/06/06 06:45:31;;;;;;;3.53;2.15;;;18.70;73.60;;;;;;5072353;28;20057;-33
2023/06/06 06:48:01;;;;;;;3.08;2.03;;;18.50;70.10;;;;;;5072580;28;20127;-32
2023/06/06 06:50:28;;;;;;;2.65;2.10;;;;;;;;;;5071888;28;20045;-39
2023/06/06 06:52:56;;;;;;;3.42;2.47;;;19.70;73.50;;;;;;5071457;28;20052;-39
2023/06/06 06:55:25;;;;;;;3.92;2.25;;;19.70;68.10;;;;;;5072039;28;20056;-41
2023/06/06 06:57:52;;;;;;;3.28;2.20;;;;;;;;;;5072044;28;20052;-37
2023/06/06 07:00:22;;;;;;;2.95;2.10;;;19.80;73.10;;;;;;5072255;28;20051;-41
2023/06/06 07:02:49;;;;;;;3.20;2.15;;;19.20;57.50;;;;;;5071966;28;20070;-38
2023/06/06 07:05:18;;;;;;;2.83;2.10;;;19.60;55.10;;;;;;5071915;28;20501;-37
2023/06/06 07:07:46;;;;;;;4.10;2.40;;;19.50;72.80;;;;;;5070617;28;20394;-41
2023/06/06 07:10:13;;;;;;;2.80;1.88;;;20.10;63.70;;;;;;5071770;28;20049;-37
2023/06/06 07:12:40;;;;;;;3.50;2.10;;;;;;;;;;5071922;28;20135;-40
2023/06/06 07:15:09;;;;;;;3.25;2.10;;;19.80;63.60;;;;;;5072033;28;20131;-41
2023/06/06 07:17:35;;;;;;;3.80;1.77;;;20.40;73.30;;;;;;5072126;28;20051;-40
2023/06/06 07:20:07;;;;;;;2.97;1.95;;;19.20;72.80;;;;;;5071661;28;20052;-41
2023/06/06 07:22:36;;;;;;;2.97;2.00;;;19.60;55.10;;;;;;5062937;28;20502;-38
2023/06/06 07:25:04;;;;;;;2.47;1.90;;;19.60;55.10;;;;;;5051584;28;20064;-37
2023/06/06 07:27:34;;;;;;;3.42;2.40;;;20.00;73.10;;;;;;5051817;28;20056;-41
2023/06/06 07:30:01;;;;;;;2.80;2.13;;;20.80;73.60;;;;;;5051962;28;20037;-41
2023/06/06 07:32:28;;;;;;;4.38;2.30;;;19.90;74.00;;;;;;5051713;28;20132;-31
2023/06/06 07:34:55;;;;;;;3.65;2.10;;;19.40;72.80;;;;;;5051634;28;20128;-30
2023/06/06 07:37:22;;;;;;;4.03;2.25;;;19.30;62.90;;;;;;5063692;28;20128;-32
2023/06/06 07:39:50;;;;;;;4.93;2.50;;;20.00;73.90;;;;;;5071566;28;20128;-30
2023/06/06 07:42:17;;;;;;;4.18;2.20;;;20.80;63.50;;;;;;5071066;28;20135;-31
2023/06/06 07:44:44;;;;;;;3.33;2.00;;;;;;;;;;5070506;28;20386;-36
2023/06/06 07:47:11;;;;;;;2.72;2.20;;;;;;;;;;5069706;28;20079;-31
2023/06/06 07:49:40;;;;;;;5.25;2.60;;;;;;;;;;5070502;28;20127;-36
2023/06/06 07:52:07;;;;;;;3.28;2.53;;;19.70;73.20;;;;;;5069633;28;20072;-31
2023/06/06 07:54:34;;;;;;;3.25;2.15;;;;;;;;;;5070238;28;20084;-36
2023/06/06 07:57:05;;;;;;;4.30;2.80;;;19.60;72.60;;;;;;5070845;28;20059;-30
2023/06/06 07:59:32;;;;;;;6.40;3.00;;;19.70;72.70;;;;;;5071611;28;20052;-31
2023/06/06 08:01:58;;;;;;;5.53;2.95;;;20.10;60.10;;;;;;5071097;28;20412;-32
2023/06/06 08:04:25;;;;;;;4.28;3.13;;;;;;;;;;5070859;28;20128;-31
2023/06/06 08:06:53;;;;;;;4.93;2.90;;;;;;;;;;5064449;28;20051;-35
2023/06/06 08:09:20;;;;;;;6.05;3.00;;;;;;;;;;5056213;28;20513;-36
2023/06/06 08:11:47;;;;;;;5.38;3.10;;;20.20;58.30;;;;;;5051410;28;20098;-31
2023/06/06 08:14:15;;;;;;;6.30;3.30;;;20.80;72.50;;;;;;5051362;28;20136;-31
2023/06/06 08:16:42;;;;;;;5.47;3.00;;;21.00;73.40;;;;;;5051143;28;20136;-31
2023/06/06 08:19:11;;;;;;;6.88;2.83;;;20.40;54.40;;;;;;5051376;28;20049;-31
2023/06/06 08:21:38;;;;;;;6.90;3.08;;;20.50;72.10;;;;;;5055412;28;20049;-31
2023/06/06 08:24:05;;;;;;;4.60;2.60;;;21.00;61.20;;;;;;5055207;28;20099;-32
2023/06/06 08:26:32;;;;;;;7.95;3.03;;;;;;;;;;5055208;28;20124;-33
2023/06/06 08:28:59;;;;;;;9.95;3.25;;;20.40;65.00;;;;;;5055173;28;20049;-32
2023/06/06 08:31:29;;;;;;;5.47;2.92;;;20.80;55.10;;;;;;5054820;28;20402;-32
2023/06/06 08:33:56;;;;;;;4.53;2.90;;;20.20;72.60;;;;;;5054788;28;20457;-31
2023/06/06 08:36:23;;;;;;;5.32;2.83;;;;;;;;;;5060413;28;20064;-35
2023/06/06 08:38:51;;;;;;;6.05;2.97;;;21.10;72.40;;;;;;5073984;28;20139;-31
2023/06/06 08:41:18;;;;;;;3.85;2.60;;;;;;;;;;5074880;28;20117;-31
2023/06/06 08:43:45;;;;;;;4.05;2.40;;;20.50;72.50;;;;;;5074446;28;20124;-31
2023/06/06 08:46:13;;;;;;;4.85;2.50;;;;;;;;;;5074113;28;20533;-34
2023/06/06 08:48:41;;;;;;;5.10;2.97;;;20.70;54.00;;;;;;5074710;28;20050;-36
2023/06/06 08:51:08;;;;;;;3.70;2.72;;;;;;;;;;5071240;28;20044;-35
2023/06/06 08:53:35;;;;;;;4.30;2.72;;;21.30;71.90;;;;;;5068710;28;20045;-30
2023/06/06 08:56:02;;;;;;;3.92;2.50;;;20.60;72.20;;;;;;5074415;28;20132;-31
2023/06/06 08:58:28;;;;;;;4.88;2.33;;;21.30;72.10;;;;;;5074624;28;20136;-31
2023/06/06 09:00:57;;;;;;;3.00;2.30;;;20.40;72.20;;;;;;5062189;28;20501;-31
2023/06/06 09:03:24;;;;;;;5.13;2.50;;;21.30;71.70;;;;;;5054385;28;20049;-31
2023/06/06 09:05:52;;;;;;;3.40;2.40;;;20.90;72.10;;;;;;5054110;28;20502;-31
2023/06/06 09:08:19;;;;;;;3.55;2.30;;;21.10;71.80;;;;;;5054375;28;20049;-32
2023/06/06 09:10:46;;;;;;;3.80;2.47;;;20.80;72.00;;;;;;5074143;28;20045;-41
2023/06/06 09:13:13;;;;;;;3.80;2.58;;;21.20;66.40;;;;;;5073873;28;20049;-41
2023/06/06 09:15:39;;;;;;;4.68;2.60;;;20.50;71.00;;;;;;5073346;28;20049;-41
2023/06/06 09:18:07;;;;;;;4.57;2.30;;;;;;;;;;5073874;28;20517;-37
2023/06/06 09:20:34;;;;;;;3.17;2.30;;;20.40;70.80;;;;;;5074230;28;20044;-40
2023/06/06 09:23:03;;;;;;;5.55;2.50;;;20.70;67.30;;;;;;5073786;28;20048;-39
2023/06/06 09:25:31;;;;;;;3.35;2.30;;;20.60;71.30;;;;;;5054545;28;20048;-41
2023/06/06 09:28:01;;;;;;;4.65;2.88;;;21.20;71.50;;;;;;5053807;28;20056;-41
2023/06/06 09:30:28;;;;;;;3.42;2.10;;;21.10;71.40;;;;;;5054024;28;20048;-41
2023/06/06 09:32:56;;;;;;;3.08;2.20;;;;;;;;;;5052763;28;20131;-38
2023/06/06 09:35:23;;;;;;;5.40;2.10;;;21.40;65.00;;;;;;5053739;28;20049;-39
2023/06/06 09:37:50;;;;;;;3.60;2.40;;;20.80;71.60;;;;;;5070093;28;20123;-41
2023/06/06 09:40:19;;;;;;;4.57;2.22;;;21.50;71.40;;;;;;5070290;28;20109;-41
2023/06/06 09:42:46;;;;;;;3.97;2.30;;;20.60;61.80;;;;;;5064392;28;20052;-40
2023/06/06 09:45:16;;;;;;;3.40;2.30;;;21.30;70.80;;;;;;5073475;28;20557;-41
2023/06/06 09:47:43;;;;;;;5.13;2.35;;;21.10;70.80;;;;;;5073683;28;20040;-41
2023/06/06 09:50:10;;;;;;;3.42;2.10;;;21.60;64.00;;;;;;5073439;28;20131;-40
2023/06/06 09:52:37;;;;;;;3.28;2.10;;;20.70;59.00;;;;;;5072988;28;20055;-41
2023/06/06 09:55:06;;;;;;;4.88;2.40;;;21.60;60.50;;;;;;5072610;28;20048;-37
2023/06/06 09:57:36;;;;;;;3.65;1.95;;;21.90;71.10;;;;;;5073206;28;20497;-40
2023/06/06 10:00:10;;;;;;;3.20;2.38;;;21.50;71.10;;;;;;5073467;28;20052;-40
2023/06/06 10:02:40;;;;;;;6.75;2.58;;;21.10;70.40;;;;;;5073160;28;20508;-41
2023/06/06 10:05:08;;;;;;;3.80;2.20;;;20.10;70.10;;;;;;5073258;28;20076;-41
2023/06/06 10:07:35;;;;;;;2.97;2.10;;;21.60;70.80;;;;;;5072915;28;20135;-41
2023/06/06 10:10:01;;;;;;;3.47;2.38;;;21.10;70.40;;;;;;5063694;28;20230;-41
2023/06/06 10:12:28;;;;;;;3.22;2.25;;;21.60;57.90;;;;;;5052842;28;20557;-38
2023/06/06 10:14:56;;;;;;;3.13;2.28;;;20.70;71.00;;;;;;5052934;28;20128;-41
2023/06/06 10:17:24;;;;;;;2.95;2.25;;;21.60;71.60;;;;;;5053054;28;20080;-41
2023/06/06 10:19:51;;;;;;;2.38;1.98;;;21.30;63.70;;;;;;5052701;28;20094;-41
2023/06/06 10:22:18;;;;;;;2.90;1.80;;;;;;;;;;5053007;28;20075;-41
2023/06/06 10:24:45;;;;;;;3.83;2.10;;;21.10;70.60;;;;;;5051415;28;20141;-41
2023/06/06 10:27:16;;;;;;;4.03;2.25;;;21.30;52.90;;;;;;5068201;28;20135;-41
2023/06/06 10:29:47;;;;;;;3.13;2.10;;;21.50;70.70;;;;;;5072742;28;20075;-41
2023/06/06 10:32:17;;;;;;;2.80;2.17;;;21.60;71.60;;;;;;5072412;28;20079;-41
2023/06/06 10:34:46;;;;;;;3.45;2.10;;;21.40;52.80;;;;;;5072591;28;20056;-40
2023/06/06 10:37:17;;;;;;;3.45;2.58;;;21.70;56.90;;;;;;5072024;28;20052;-39
2023/06/06 10:39:45;;;;;;;3.58;2.20;;;21.70;69.40;;;;;;5072513;28;20063;-31
2023/06/06 10:42:12;;;;;;;3.65;2.15;;;20.60;70.20;;;;;;5055676;28;20053;-31
2023/06/06 10:44:54;;;;;;;2.75;2.10;;;20.90;66.70;;;;;;5052662;28;20052;-31
2023/06/06 10:47:29;;;;;;;2.72;2.13;;;21.10;70.30;;;;;;5052379;28;20044;-31
2023/06/06 10:50:22;;;;;;;2.83;2.17;;;21.50;52.80;;;;;;5052668;28;20052;-34
2023/06/06 10:52:50;;;;;;;3.03;2.03;;;22.20;71.30;;;;;;5069196;28;20052;-31
2023/06/06 10:55:17;;;;;;;3.65;2.10;;;21.20;53.80;;;;;;5071624;28;20161;-31
2023/06/06 10:57:51;;;;;;;2.67;1.90;;;21.50;52.80;;;;;;5062497;28;20531;-37
2023/06/06 11:00:18;;;;;;;3.08;2.00;;;20.80;69.50;;;;;;5054781;28;20048;-31
2023/06/06 11:02:47;;;;;;;3.45;2.15;;;21.50;52.80;;;;;;5069631;28;20508;-31
2023/06/06 11:05:15;;;;;;;2.90;2.22;;;20.80;58.20;;;;;;5060692;28;20120;-32
2023/06/06 11:07:41;;;;;;;2.42;2.00;;;21.30;57.10;;;;;;5059834;28;20053;-32
2023/06/06 11:10:08;;;;;;;2.17;1.98;;;21.90;57.80;;;;;;5061587;28;20517;-32
2023/06/06 11:12:35;;;;;;;3.70;2.22;;;21.30;70.80;;;;;;5060316;28;20134;-31
2023/06/06 11:15:05;;;;;;;2.08;1.85;;;21.50;52.80;;;;;;5060177;28;20510;-31
2023/06/06 11:17:43;;;;;;;2.40;1.85;;;21.60;52.80;;;;;;5071858;28;20469;-36
2023/06/06 11:20:17;;;;;;;2.33;2.00;;;21.40;65.10;;;;;;5071916;28;20072;-32
2023/06/06 11:22:50;;;;;;;2.45;2.00;;;21.80;70.90;;;;;;5072012;28;20135;-33
2023/06/06 11:25:21;;;;;;;4.32;2.30;;;22.30;53.30;;;;;;5056454;28;20052;-31
2023/06/06 11:27:49;;;;;;;2.92;1.90;;;21.80;70.90;;;;;;5051886;28;20049;-31
2023/06/06 11:30:16;;;;;;;3.97;2.10;;;;;;;;;;5051958;28;20057;-33
2023/06/06 11:32:45;;;;;;;3.80;2.22;;;21.60;52.80;;;;;;5051203;28;20487;-35
2023/06/06 11:35:16;;;;;;;3.05;2.10;;;21.60;52.90;;;;;;5062116;28;20063;-31
2023/06/06 11:37:43;;;;;;;2.65;1.98;;;22.40;70.50;;;;;;5071060;28;20135;-31
2023/06/06 11:40:11;;;;;;;3.03;2.00;;;21.40;70.50;;;;;;5069136;28;20059;-32
2023/06/06 11:42:41;;;;;;;2.28;2.03;;;21.50;70.90;;;;;;5070947;28;20048;-31
2023/06/06 11:45:13;;;;;;;3.47;2.25;;;21.20;70.00;;;;;;5071627;28;20136;-31
2023/06/06 11:47:40;;;;;;;4.88;2.38;;;;;;;;;;5071229;28;20454;-32
2023/06/06 11:50:08;;;;;;;3.17;1.88;;;21.40;70.90;;;;;;5071569;28;20048;-31
2023/06/06 11:52:45;;;;;;;3.65;2.20;;;21.70;52.90;;;;;;5070518;28;20045;-31
2023/06/06 11:55:11;;;;;;;2.47;2.00;;;21.50;56.90;;;;;;5069189;28;20131;-32
2023/06/06 11:57:38;;;;;;;3.03;2.00;;;21.80;70.10;;;;;;5065913;28;20063;-32
2023/06/06 12:00:17;;;;;;;2.70;1.95;;;20.90;69.70;;;;;;5064605;28;20072;-32
2023/06/06 12:02:47;;;;;;;3.58;1.80;;;21.10;65.10;;;;;;5064630;28;20047;-32
2023/06/06 12:05:19;;;;;;;3.05;2.20;;;21.50;65.90;;;;;;5063759;28;21681;-32
2023/06/06 12:07:48;;;;;;;2.40;2.08;;;21.70;52.80;;;;;;5064775;28;20123;-34
2023/06/06 12:10:22;;;;;;;2.72;1.85;;;21.80;70.90;;;;;;5064348;28;20156;-31
2023/06/06 12:12:49;;;;;;;4.00;1.95;;;22.20;71.10;;;;;;5054695;28;20044;-31
2023/06/06 12:15:16;;;;;;;2.50;2.00;;;21.60;54.30;;;;;;5054508;28;20079;-34
2023/06/06 12:17:43;;;;;;;2.90;1.98;;;20.70;69.60;;;;;;5054862;28;20123;-31
2023/06/06 12:20:11;;;;;;;3.08;1.98;;;21.70;52.90;;;;;;5054702;28;20127;-31
2023/06/06 12:22:37;;;;;;;2.88;2.08;;;21.70;71.00;;;;;;5054492;28;20045;-31
2023/06/06 12:25:06;;;;;;;2.30;1.92;;;21.70;52.90;;;;;;5054853;28;20049;-34
2023/06/06 12:27:36;;;;;;;2.50;1.98;;;22.80;70.70;;;;;;5054840;28;20053;-31
2023/06/06 12:30:03;;;;;;;2.65;2.10;;;21.40;70.00;;;;;;5054974;28;20057;-31
2023/06/06 12:32:30;;;;;;;3.28;2.15;;;21.30;70.80;;;;;;5073428;28;20136;-31
2023/06/06 12:35:01;;;;;;;2.72;2.20;;;22.10;70.40;;;;;;5074977;28;20044;-31
2023/06/06 12:37:39;;;;;;;3.55;2.47;;;21.40;70.00;;;;;;5074106;28;20045;-31
2023/06/06 12:40:15;;;;;;;3.28;2.10;;;21.10;69.90;;;;;;5074342;28;20127;-31
2023/06/06 12:42:42;;;;;;;2.67;1.90;;;22.20;70.50;;;;;;5074440;28;20379;-31
2023/06/06 12:45:10;;;;;;;2.60;2.05;;;22.70;58.20;;;;;;5074506;28;20489;-33
2023/06/06 12:47:37;;;;;;;3.42;2.50;;;21.90;62.60;;;;;;5074629;28;20052;-31
2023/06/06 12:50:05;;;;;;;3.10;2.28;;;22.10;64.80;;;;;;5074436;28;20063;-31
2023/06/06 12:52:31;;;;;;;4.22;2.20;;;21.20;64.40;;;;;;5074448;28;20048;-31
2023/06/06 12:54:58;;;;;;;3.88;2.30;;;21.40;71.00;;;;;;5059522;28;20455;-31
2023/06/06 12:57:26;;;;;;;2.70;2.05;;;21.50;70.60;;;;;;5054517;28;20055;-31
2023/06/06 12:59:53;;;;;;;3.38;2.15;;;;;;;;;;5054310;28;20185;-35
2023/06/06 13:02:20;;;;;;;3.38;2.20;;;21.30;70.50;;;;;;5054107;28;20124;-31
2023/06/06 13:04:46;;;;;;;3.05;2.38;;;20.70;70.20;;;;;;5056229;28;20052;-31
2023/06/06 13:07:14;;;;;;;3.85;2.40;;;;;;;;;;5063270;28;20124;-36
2023/06/06 13:09:40;;;;;;;4.95;2.65;;;22.40;70.70;;;;;;5063258;28;20127;-32